createdAt,value
2023-01-03T00:00:19.013Z,97100.94
2023-01-03T00:02:45.793Z,97079.00
2023-01-03T00:05:12.452Z,97088.41
2023-01-03T00:07:39.052Z,97090.28
2023-01-03T00:10:09.959Z,97096.44
2023-01-03T00:12:37.870Z,97100.47
2023-01-03T00:15:04.911Z,97092.97
2023-01-03T00:17:31.915Z,97100.22
2023-01-03T00:19:58.576Z,97104.22
2023-01-03T00:22:25.463Z,97100.41
2023-01-03T00:24:53.181Z,97108.19
2023-01-03T00:27:19.858Z,97096.19
2023-01-03T00:29:46.508Z,97104.19
2023-01-03T00:32:13.801Z,97100.72
2023-01-03T00:34:43.013Z,97096.97
2023-01-03T00:37:09.666Z,97106.88
2023-01-03T00:39:36.388Z,97109.25
2023-01-03T00:42:03.047Z,97112.19
2023-01-03T00:44:29.664Z,97118.38
2023-01-03T00:46:56.288Z,97114.88
2023-01-03T00:49:23.053Z,97115.44
2023-01-03T00:51:49.817Z,97107.94
2023-01-03T00:54:16.580Z,97105.50
2023-01-03T00:56:45.558Z,97118.91
2023-01-03T00:59:13.709Z,97119.44
2023-01-03T01:01:46.764Z,97126.09
2023-01-03T01:04:19.422Z,97128.84
2023-01-03T01:06:58.429Z,97134.19
2023-01-03T01:09:37.300Z,97137.16
2023-01-03T01:12:05.604Z,97132.56
2023-01-03T01:14:33.794Z,97132.06
2023-01-03T01:17:03.523Z,97141.72
2023-01-03T01:19:33.032Z,97137.41
2023-01-03T01:21:59.853Z,97133.44
2023-01-03T01:24:26.885Z,97140.94
2023-01-03T01:26:53.902Z,97140.72
2023-01-03T01:29:21.168Z,97135.13
2023-01-03T01:31:48.436Z,97141.31
2023-01-03T01:34:15.934Z,97144.53
2023-01-03T01:36:43.720Z,97145.59
2023-01-03T01:39:16.152Z,97153.13
2023-01-03T01:42:02.765Z,97144.53
2023-01-03T01:44:48.211Z,97143.72
2023-01-03T01:47:33.253Z,97151.50
2023-01-03T01:50:15.031Z,97165.47
2023-01-03T01:52:50.623Z,97152.88
2023-01-03T01:55:21.405Z,97161.50
2023-01-03T01:57:48.543Z,97161.47
2023-01-03T02:00:15.733Z,97164.97
2023-01-03T02:02:44.882Z,97158.53
2023-01-03T02:05:12.136Z,97151.56
2023-01-03T02:07:39.614Z,97159.31
2023-01-03T02:10:07.476Z,97163.88
2023-01-03T02:13:08.086Z,97169.78
2023-01-03T02:15:53.827Z,97170.56
2023-01-03T02:18:23.485Z,97174.63
2023-01-03T02:21:20.776Z,97175.66
2023-01-03T02:24:23.514Z,97172.38
2023-01-03T02:27:04.949Z,97174.56
2023-01-03T02:29:49.452Z,97170.72
2023-01-03T02:32:23.977Z,97177.22
2023-01-03T02:34:59.421Z,97168.06
2023-01-03T02:37:36.585Z,97172.91
2023-01-03T02:40:20.548Z,97165.91
2023-01-03T02:42:58.507Z,97170.81
2023-01-03T02:45:52.669Z,97170.84
2023-01-03T02:48:41.056Z,97175.94
2023-01-03T02:51:17.733Z,97183.44
2023-01-03T02:53:47.513Z,97182.06
2023-01-03T02:56:21.357Z,97185.28
2023-01-03T02:58:53.752Z,97187.47
2023-01-03T03:01:20.912Z,97183.69
2023-01-03T03:03:48.187Z,97195.53
2023-01-03T03:06:14.771Z,97187.97
2023-01-03T03:08:45.554Z,97183.66
2023-01-03T03:11:31.868Z,97183.91
2023-01-03T03:14:43.735Z,97186.88
2023-01-03T03:17:17.839Z,97185.88
2023-01-03T03:20:06.468Z,97188.56
2023-01-03T03:22:58.919Z,97184.56
2023-01-03T03:25:30.946Z,97183.47
2023-01-03T03:28:19.733Z,97191.22
2023-01-03T03:30:51.138Z,97186.41
2023-01-03T03:33:19.826Z,97185.84
2023-01-03T03:36:08.160Z,97192.81
2023-01-03T03:38:42.098Z,97197.59
2023-01-03T03:41:36.631Z,97193.84
2023-01-03T03:44:41.817Z,97185.72
2023-01-03T03:47:40.905Z,97177.63
2023-01-03T03:50:10.966Z,97186.47
2023-01-03T03:52:40.052Z,97185.69
2023-01-03T03:55:21.696Z,97183.50
2023-01-03T03:58:03.696Z,97184.34
2023-01-03T04:00:33.042Z,97179.19
2023-01-03T04:03:02.591Z,97189.97
2023-01-03T04:05:34.686Z,97180.00
2023-01-03T04:08:01.306Z,97178.13
2023-01-03T04:10:32.563Z,97179.19
2023-01-03T04:13:02.257Z,97178.91
2023-01-03T04:15:28.848Z,97179.75
2023-01-03T04:17:55.451Z,97180.00
2023-01-03T04:20:22.023Z,97174.88
2023-01-03T04:22:48.674Z,97178.44
2023-01-03T04:25:15.324Z,97187.88
2023-01-03T04:27:41.931Z,97197.09
2023-01-03T04:30:09.040Z,97196.28
2023-01-03T04:32:35.625Z,97201.44
2023-01-03T04:35:02.212Z,97204.66
2023-01-03T04:37:28.818Z,97213.75
2023-01-03T04:39:55.418Z,97214.81
2023-01-03T04:42:40.807Z,97204.09
2023-01-03T04:45:08.187Z,97211.69
2023-01-03T04:47:34.868Z,97211.69
2023-01-03T04:50:01.462Z,97210.59
2023-01-03T04:52:29.374Z,97210.59
2023-01-03T04:54:55.968Z,97214.91
2023-01-03T04:57:22.625Z,97219.97
2023-01-03T04:59:49.248Z,97229.41
2023-01-03T05:02:15.959Z,97224.81
2023-01-03T05:04:42.799Z,97220.75
2023-01-03T05:07:09.467Z,97226.66
2023-01-03T05:09:36.052Z,97236.84
2023-01-03T05:12:02.684Z,97232.56
2023-01-03T05:14:29.424Z,97233.63
2023-01-03T05:16:56.054Z,97241.72
2023-01-03T05:19:22.755Z,97235.25
2023-01-03T05:22:07.782Z,97237.94
2023-01-03T05:24:52.943Z,97232.56
2023-01-03T05:27:19.704Z,97241.16
2023-01-03T05:29:52.207Z,97237.41
2023-01-03T05:32:18.888Z,97247.63
2023-01-03T05:34:45.493Z,97245.19
2023-01-03T05:37:12.507Z,97257.00
2023-01-03T05:39:39.173Z,97249.19
2023-01-03T05:42:05.908Z,97245.41
2023-01-03T05:44:34.074Z,97249.72
2023-01-03T05:47:03.465Z,97256.75
2023-01-03T05:49:30.185Z,97251.09
2023-01-03T05:51:57.014Z,97256.72
2023-01-03T05:54:23.685Z,97257.78
2023-01-03T05:56:51.335Z,97264.00
2023-01-03T05:59:18.947Z,97258.88
2023-01-03T06:01:45.695Z,97261.03
2023-01-03T06:04:12.401Z,97260.47
2023-01-03T06:06:39.013Z,97261.59
2023-01-03T06:09:05.846Z,97269.69
2023-01-03T06:11:32.485Z,97260.53
2023-01-03T06:13:59.103Z,97263.78
2023-01-03T06:16:44.530Z,97268.63
2023-01-03T06:19:12.003Z,97270.78
2023-01-03T06:21:38.705Z,97277.78
2023-01-03T06:24:05.657Z,97279.34
2023-01-03T06:26:32.401Z,97278.81
2023-01-03T06:28:59.351Z,97278.84
2023-01-03T06:31:26.190Z,97282.09
2023-01-03T06:33:52.944Z,97279.91
2023-01-03T06:36:21.693Z,97275.63
2023-01-03T06:38:48.864Z,97280.44
2023-01-03T06:41:17.082Z,97269.16
2023-01-03T06:43:44.403Z,97285.03
2023-01-03T06:46:31.548Z,97280.47
2023-01-03T06:49:17.714Z,97269.16
2023-01-03T06:52:05.145Z,97282.63
2023-01-03T06:54:34.064Z,97281.00
2023-01-03T06:57:01.212Z,97283.16
2023-01-03T06:59:28.036Z,97285.84
2023-01-03T07:01:55.174Z,97290.69
2023-01-03T07:04:23.551Z,97285.81
2023-01-03T07:06:50.619Z,97287.72
2023-01-03T07:09:17.757Z,97288.50
2023-01-03T07:11:44.658Z,97285.81
2023-01-03T07:14:11.728Z,97289.34
2023-01-03T07:16:44.141Z,97289.06
2023-01-03T07:19:18.909Z,97290.66
2023-01-03T07:21:46.380Z,97300.09
2023-01-03T07:24:15.146Z,97303.31
2023-01-03T07:26:41.870Z,97307.34
2023-01-03T07:29:10.418Z,97311.13
2023-01-03T07:31:40.903Z,97315.41
2023-01-03T07:34:08.535Z,97317.53
2023-01-03T07:36:35.171Z,97325.03
2023-01-03T07:39:01.954Z,97319.13
2023-01-03T07:41:48.503Z,97319.13
2023-01-03T07:44:15.116Z,97326.41
2023-01-03T07:46:41.824Z,97335.28
2023-01-03T07:49:11.934Z,97322.66
2023-01-03T07:51:39.664Z,97326.41
2023-01-03T07:54:07.749Z,97331.53
2023-01-03T07:56:34.694Z,97317.81
2023-01-03T07:59:02.153Z,97324.28
2023-01-03T08:01:30.329Z,97327.75
2023-01-03T08:03:57.393Z,97330.69
2023-01-03T08:06:24.433Z,97325.59
2023-01-03T08:09:10.403Z,97334.22
2023-01-03T08:12:12.275Z,97326.69
2023-01-03T08:14:38.859Z,97328.31
2023-01-03T08:17:05.473Z,97332.59
2023-01-03T08:19:32.086Z,97332.59
2023-01-03T08:21:58.733Z,97339.06
2023-01-03T08:24:25.334Z,97338.53
2023-01-03T08:26:51.991Z,97342.03
2023-01-03T08:29:18.622Z,97346.03
2023-01-03T08:31:55.164Z,97350.88
2023-01-03T08:34:29.350Z,97350.56
2023-01-03T08:37:00.856Z,97352.47
2023-01-03T08:39:34.368Z,97354.63
2023-01-03T08:42:05.171Z,97357.31
2023-01-03T08:44:32.072Z,97362.13
2023-01-03T08:47:02.939Z,97359.97
2023-01-03T08:49:30.792Z,97372.25
2023-01-03T08:51:57.563Z,97365.06
2023-01-03T08:54:24.151Z,97361.03
2023-01-03T08:56:50.721Z,97372.78
2023-01-03T08:59:17.376Z,97367.41
2023-01-03T09:01:44.044Z,97368.75
2023-01-03T09:04:10.826Z,97367.41
2023-01-03T09:06:37.465Z,97367.94
2023-01-03T09:09:08.436Z,97368.03
2023-01-03T09:11:35.029Z,97368.59
2023-01-03T09:14:01.729Z,97379.06
2023-01-03T09:16:28.405Z,97382.50
2023-01-03T09:18:55.131Z,97385.50
2023-01-03T09:21:21.719Z,97393.28
2023-01-03T09:23:48.323Z,97387.66
2023-01-03T09:26:14.996Z,97391.66
2023-01-03T09:28:41.641Z,97395.47
2023-01-03T09:31:08.257Z,97396.53
2023-01-03T09:33:35.117Z,97402.44
2023-01-03T09:36:01.830Z,97398.13
2023-01-03T09:38:28.540Z,97400.31
2023-01-03T09:41:06.045Z,97396.31
2023-01-03T09:43:41.064Z,97393.63
2023-01-03T09:46:17.636Z,97400.34
2023-01-03T09:48:44.626Z,97397.38
2023-01-03T09:51:40.309Z,97392.03
2023-01-03T09:54:31.740Z,97401.97
2023-01-03T09:57:17.061Z,97394.69
2023-01-03T10:00:02.485Z,97397.94
2023-01-03T10:02:59.107Z,97399.25
2023-01-03T10:05:37.950Z,97399.28
2023-01-03T10:08:12.938Z,97392.28
2023-01-03T10:10:45.469Z,97386.38
2023-01-03T10:13:30.368Z,97387.97
2023-01-03T10:15:57.042Z,97375.63
2023-01-03T10:18:59.827Z,97387.72
2023-01-03T10:21:52.148Z,97378.03
2023-01-03T10:24:25.010Z,97376.41
2023-01-03T10:27:03.657Z,97377.75
2023-01-03T10:29:30.350Z,97373.44
2023-01-03T10:32:10.781Z,97375.06
2023-01-03T10:34:38.917Z,97375.59
2023-01-03T10:37:25.832Z,97376.13
2023-01-03T10:40:03.293Z,97375.59
2023-01-03T10:42:33.059Z,97372.38
2023-01-03T10:45:10.519Z,97373.97
2023-01-03T10:47:37.097Z,97372.88
2023-01-03T10:50:06.281Z,97375.56
2023-01-03T10:52:35.766Z,97370.47
2023-01-03T10:55:11.533Z,97364.25
2023-01-03T10:57:46.264Z,97366.41
2023-01-03T11:00:23.842Z,97373.44
2023-01-03T11:02:51.169Z,97365.41
2023-01-03T11:05:27.516Z,97360.28
2023-01-03T11:08:05.983Z,97357.06
2023-01-03T11:10:49.224Z,97372.38
2023-01-03T11:13:27.638Z,97366.47
2023-01-03T11:15:59.926Z,97364.31
2023-01-03T11:18:29.179Z,97363.50
2023-01-03T11:21:11.852Z,97359.47
2023-01-03T11:24:08.849Z,97360.81
2023-01-03T11:26:51.079Z,97364.31
2023-01-03T11:29:35.973Z,97353.03
2023-01-03T11:32:05.321Z,97358.94
2023-01-03T11:38:19.230Z,97358.69
2023-01-03T11:40:51.238Z,97362.72
2023-01-03T11:43:48.639Z,97349.81
2023-01-03T11:46:56.488Z,97351.44
2023-01-03T11:49:53.720Z,97356.78
2023-01-03T11:52:39.881Z,97357.31
2023-01-03T11:55:44.889Z,97344.97
2023-01-03T11:58:17.213Z,97346.53
2023-01-03T12:00:52.735Z,97343.59
2023-01-03T12:03:34.267Z,97346.84
2023-01-03T12:06:13.623Z,97337.97
2023-01-03T12:09:10.622Z,97340.66
2023-01-03T12:11:39.925Z,97348.41
2023-01-03T12:14:19.597Z,97346.03
2023-01-03T12:16:56.941Z,97351.13
2023-01-03T12:19:43.611Z,97346.81
2023-01-03T12:22:45.340Z,97352.16
2023-01-03T12:25:30.095Z,97349.94
2023-01-03T12:28:11.730Z,97351.00
2023-01-03T12:31:27.853Z,97343.88
2023-01-03T12:34:13.032Z,97339.28
2023-01-03T12:36:51.201Z,97343.84
2023-01-03T12:39:55.124Z,97338.31
2023-01-03T12:42:33.703Z,97342.16
2023-01-03T12:45:11.971Z,97343.69
2023-01-03T12:47:46.567Z,97339.59
2023-01-03T12:50:13.132Z,97338.72
2023-01-03T12:52:41.750Z,97335.13
2023-01-03T12:55:23.466Z,97332.81
2023-01-03T12:58:16.498Z,97332.94
2023-01-03T13:01:24.638Z,97329.44
2023-01-03T13:04:02.767Z,97340.03
2023-01-03T13:06:34.997Z,97343.50
2023-01-03T13:09:16.477Z,97345.34
2023-01-03T13:11:47.465Z,97341.88
2023-01-03T13:14:22.597Z,97337.59
2023-01-03T13:16:51.048Z,97339.53
2023-01-03T13:19:21.704Z,97343.22
2023-01-03T13:21:54.372Z,97343.19
2023-01-03T13:24:44.667Z,97343.75
2023-01-03T13:27:22.952Z,97336.84
2023-01-03T13:29:49.560Z,97338.13
2023-01-03T13:32:20.429Z,97349.06
2023-01-03T13:34:59.031Z,97348.09
2023-01-03T13:37:43.824Z,97344.69
2023-01-03T13:40:13.442Z,97345.22
2023-01-03T13:42:40.745Z,97341.97
2023-01-03T13:45:17.392Z,97349.81
2023-01-03T13:47:52.831Z,97336.91
2023-01-03T13:50:19.749Z,97343.63
2023-01-03T13:53:04.557Z,97344.44
2023-01-03T13:55:54.305Z,97348.19
2023-01-03T13:58:24.719Z,97347.91
2023-01-03T14:00:52.040Z,97351.41
2023-01-03T14:04:08.356Z,97371.84
2023-01-03T14:06:56.580Z,97367.00
2023-01-03T14:09:32.359Z,97373.47
2023-01-03T14:12:36.032Z,97372.38
2023-01-03T14:15:26.361Z,97369.72
2023-01-03T14:17:59.903Z,97375.63
2023-01-03T14:20:31.073Z,97372.41
2023-01-03T14:23:17.068Z,97377.75
2023-01-03T14:25:50.098Z,97386.38
2023-01-03T14:28:19.183Z,97388.53
2023-01-03T14:30:50.391Z,97380.44
2023-01-03T14:33:18.821Z,97376.69
2023-01-03T14:35:46.159Z,97381.53
2023-01-03T14:38:36.061Z,97387.19
2023-01-03T14:41:03.501Z,97386.38
2023-01-03T14:43:32.699Z,97385.47
2023-01-03T14:46:06.751Z,97387.75
2023-01-03T14:48:33.647Z,97390.88
2023-01-03T14:51:02.699Z,97391.44
2023-01-03T14:53:31.576Z,97404.09
2023-01-03T14:55:58.844Z,97395.78
2023-01-03T14:58:47.168Z,97395.47
2023-01-03T15:01:15.385Z,97403.28
2023-01-03T15:03:45.182Z,97403.00
2023-01-03T15:06:33.073Z,97413.25
2023-01-03T15:09:12.603Z,97408.41
2023-01-03T15:11:57.133Z,97410.53
2023-01-03T15:14:32.075Z,97393.28
2023-01-03T15:17:10.216Z,97409.19
2023-01-03T15:19:40.777Z,97413.38
2023-01-03T15:22:13.902Z,97418.72
2023-01-03T15:24:44.328Z,97414.88
2023-01-03T15:27:38.669Z,97412.50
2023-01-03T15:30:15.177Z,97423.03
2023-01-03T15:33:06.008Z,97423.69
2023-01-03T15:35:43.126Z,97431.06
2023-01-03T15:38:36.451Z,97426.72
2023-01-03T15:42:12.293Z,97427.59
2023-01-03T15:44:37.825Z,97432.78
2023-01-03T15:47:08.602Z,97430.41
2023-01-03T15:49:42.074Z,97436.38
2023-01-03T15:52:13.331Z,97432.03
2023-01-03T15:54:41.876Z,97437.47
2023-01-03T15:57:17.580Z,97436.09
2023-01-03T15:59:44.326Z,97433.44
2023-01-03T16:02:16.907Z,97440.97
2023-01-03T16:04:45.533Z,97441.34
2023-01-03T16:07:13.049Z,97445.66
2023-01-03T16:09:40.154Z,97448.31
2023-01-03T16:12:13.326Z,97448.59
2023-01-03T16:14:41.242Z,97451.19
2023-01-03T16:17:11.676Z,97450.25
2023-01-03T16:19:38.294Z,97446.78
2023-01-03T16:24:52.723Z,97449.56
2023-01-03T16:27:21.996Z,97447.41
2023-01-03T16:29:48.871Z,97458.97
2023-01-03T16:32:28.139Z,97455.81
2023-01-03T16:35:03.410Z,97458.75
2023-01-03T16:37:30.136Z,97461.66
2023-01-03T16:39:58.340Z,97455.25
2023-01-03T16:42:28.030Z,97454.44
2023-01-03T16:44:55.374Z,97452.28
2023-01-03T16:47:33.079Z,97456.28
2023-01-03T16:50:04.068Z,97461.69
2023-01-03T16:52:36.635Z,97462.00
2023-01-03T16:55:13.142Z,97461.94
2023-01-03T16:57:39.789Z,97466.72
2023-01-03T17:00:18.320Z,97465.91
2023-01-03T17:02:45.186Z,97464.06
2023-01-03T17:05:12.201Z,97468.09
2023-01-03T17:07:39.562Z,97471.56
2023-01-03T17:10:07.322Z,97469.47
2023-01-03T17:12:34.193Z,97475.34
2023-01-03T17:15:00.867Z,97478.03
2023-01-03T17:17:27.428Z,97476.41
2023-01-03T17:20:04.073Z,97476.13
2023-01-03T17:22:32.333Z,97473.19
2023-01-03T17:24:59.062Z,97476.94
2023-01-03T17:27:32.013Z,97478.56
2023-01-03T17:30:06.852Z,97479.34
2023-01-03T17:32:34.127Z,97490.09
2023-01-03T17:35:00.874Z,97493.63
2023-01-03T17:37:27.470Z,97492.00
2023-01-03T17:39:57.417Z,97495.47
2023-01-03T17:42:25.650Z,97493.03
2023-01-03T17:45:12.417Z,97499.50
2023-01-03T17:47:59.521Z,97493.00
2023-01-03T17:50:29.328Z,97498.94
2023-01-03T17:52:56.671Z,97497.03
2023-01-03T17:55:26.562Z,97493.00
2023-01-03T17:57:54.192Z,97495.09
2023-01-03T18:00:24.850Z,97494.03
2023-01-03T18:02:52.539Z,97495.13
2023-01-03T18:05:27.128Z,97493.88
2023-01-03T18:08:00.078Z,97495.63
2023-01-03T18:10:46.174Z,97492.06
2023-01-03T18:13:34.381Z,97489.13
2023-01-03T18:16:01.082Z,97487.31
2023-01-03T18:18:28.713Z,97489.22
2023-01-03T18:20:55.972Z,97486.56
2023-01-03T18:23:32.122Z,97502.38
2023-01-03T18:26:03.166Z,97503.34
2023-01-03T18:28:30.211Z,97498.59
2023-01-03T18:30:57.395Z,97494.34
2023-01-03T18:33:24.829Z,97493.03
2023-01-03T18:35:52.517Z,97493.03
2023-01-03T18:38:28.061Z,97496.75
2023-01-03T18:41:00.733Z,97492.69
2023-01-03T18:43:31.756Z,97499.13
2023-01-03T18:45:58.475Z,97501.25
2023-01-03T18:48:25.170Z,97500.25
2023-01-03T18:50:58.459Z,97504.22
2023-01-03T18:53:31.248Z,97507.66
2023-01-03T18:55:58.410Z,97517.91
2023-01-03T18:58:34.018Z,97513.41
2023-01-03T19:01:00.909Z,97507.22
2023-01-03T19:03:30.656Z,97508.53
2023-01-03T19:05:59.722Z,97513.03
2023-01-03T19:08:30.777Z,97518.16
2023-01-03T19:11:23.849Z,97513.63
2023-01-03T19:13:54.943Z,97518.22
2023-01-03T19:16:27.789Z,97508.56
2023-01-03T19:18:54.908Z,97510.31
2023-01-03T19:21:23.363Z,97511.66
2023-01-03T19:24:23.864Z,97506.41
2023-01-03T19:27:10.985Z,97510.97
2023-01-03T19:29:38.330Z,97516.69
2023-01-03T19:32:12.783Z,97522.06
2023-01-03T19:34:39.417Z,97508.94
2023-01-03T19:37:06.064Z,97512.03
2023-01-03T19:39:37.461Z,97516.34
2023-01-03T19:42:24.630Z,97509.03
2023-01-03T19:44:52.982Z,97517.19
2023-01-03T19:47:22.884Z,97510.25
2023-01-03T19:49:49.516Z,97508.16
2023-01-03T19:52:17.534Z,97497.72
2023-01-03T19:54:44.809Z,97498.56
2023-01-03T19:57:24.008Z,97493.22
2023-01-03T19:59:56.827Z,97497.47
2023-01-03T20:02:32.937Z,97499.13
2023-01-03T20:05:00.553Z,97494.78
2023-01-03T20:07:27.380Z,97495.28
2023-01-03T20:09:53.993Z,97504.22
2023-01-03T20:12:26.083Z,97502.13
2023-01-03T20:15:00.034Z,97504.44
2023-01-03T20:17:31.139Z,97503.66
2023-01-03T20:19:57.740Z,97506.38
2023-01-03T20:23:02.443Z,97497.53
2023-01-03T20:25:23.426Z,97500.00
2023-01-03T20:27:50.930Z,97490.53
2023-01-03T20:30:19.575Z,97492.34
2023-01-03T20:32:46.207Z,97493.28
2023-01-03T20:36:08.404Z,97499.19
2023-01-03T20:38:06.750Z,97497.69
2023-01-03T20:40:33.399Z,97497.81
2023-01-03T20:43:02.357Z,97487.72
2023-01-03T20:45:30.030Z,97489.28
2023-01-03T20:47:56.647Z,97491.41
2023-01-03T20:50:27.724Z,97498.31
2023-01-03T20:52:55.061Z,97501.88
2023-01-03T20:55:23.795Z,97495.75
2023-01-03T20:57:51.029Z,97502.63
2023-01-03T21:00:25.737Z,97510.00
2023-01-03T21:02:53.064Z,97503.47
2023-01-03T21:05:20.144Z,97514.47
2023-01-03T21:08:05.635Z,97504.72
2023-01-03T21:10:37.891Z,97499.66
2023-01-03T21:13:04.951Z,97508.75
2023-01-03T21:15:32.248Z,97509.44
2023-01-03T21:17:59.137Z,97511.38
2023-01-03T21:20:27.937Z,97515.28
2023-01-03T21:22:54.552Z,97518.16
2023-01-03T21:25:32.992Z,97512.81
2023-01-03T21:28:01.521Z,97517.53
2023-01-03T21:30:30.867Z,97512.59
2023-01-03T21:32:59.497Z,97519.19
2023-01-03T21:35:26.593Z,97524.38
2023-01-03T21:37:54.507Z,97532.00
2023-01-03T21:40:24.564Z,97535.22
2023-01-03T21:43:03.560Z,97535.97
2023-01-03T21:45:30.972Z,97532.69
2023-01-03T21:47:57.993Z,97532.19
2023-01-03T21:50:25.366Z,97528.28
2023-01-03T21:52:52.866Z,97535.09
2023-01-03T21:55:20.628Z,97523.41
2023-01-03T21:57:47.268Z,97524.50
2023-01-03T22:00:14.806Z,97529.38
2023-01-03T22:03:01.125Z,97526.44
2023-01-03T22:05:29.043Z,97527.75
2023-01-03T22:07:55.949Z,97523.53
2023-01-03T22:10:23.867Z,97532.09
2023-01-03T22:13:02.662Z,97528.22
2023-01-03T22:15:29.288Z,97539.75
2023-01-03T22:17:56.127Z,97539.47
2023-01-03T22:20:25.616Z,97531.22
2023-01-03T22:22:53.089Z,97531.41
2023-01-03T22:25:22.841Z,97536.25
2023-01-03T22:27:50.119Z,97537.81
2023-01-03T22:30:19.176Z,97542.91
2023-01-03T22:32:46.933Z,97528.59
2023-01-03T22:35:15.742Z,97533.47
2023-01-03T22:37:42.672Z,97535.09
2023-01-03T22:40:12.679Z,97530.84
2023-01-03T22:42:39.437Z,97528.91
2023-01-03T22:45:07.352Z,97521.66
2023-01-03T22:47:36.558Z,97530.09
2023-01-03T22:50:04.667Z,97525.69
2023-01-03T22:52:31.304Z,97523.91
2023-01-03T22:54:58.077Z,97517.63
2023-01-03T22:57:24.739Z,97521.47
2023-01-03T22:59:51.553Z,97524.38
2023-01-03T23:02:19.265Z,97519.44
2023-01-03T23:04:47.500Z,97516.28
2023-01-03T23:07:14.152Z,97512.16
2023-01-03T23:09:40.714Z,97509.59
2023-01-03T23:12:26.065Z,97502.09
2023-01-03T23:14:52.645Z,97506.16
2023-01-03T23:17:37.551Z,97502.75
2023-01-03T23:20:04.552Z,97501.91
2023-01-03T23:22:31.224Z,97497.19
2023-01-03T23:24:58.139Z,97501.84
2023-01-03T23:27:27.386Z,97508.72
2023-01-03T23:29:55.072Z,97502.41
2023-01-03T23:32:21.673Z,97496.06
2023-01-03T23:34:48.560Z,97495.84
2023-01-03T23:37:15.251Z,97497.13
2023-01-03T23:39:43.081Z,97499.22
2023-01-03T23:42:10.035Z,97485.41
2023-01-03T23:44:36.751Z,97486.78
2023-01-03T23:47:09.273Z,97487.06
2023-01-03T23:49:38.283Z,97493.56
2023-01-03T23:52:04.955Z,97482.16
2023-01-03T23:54:31.522Z,97480.13
2023-01-03T23:56:58.115Z,97483.25
2023-01-03T23:59:24.760Z,97478.44
